createdAt,value
2018-07-27T00:00:08.818Z,18.66
2018-07-27T00:02:38.026Z,18.71
2018-07-27T00:05:07.357Z,18.83
2018-07-27T00:07:36.267Z,18.69
2018-07-27T00:10:06.221Z,18.71
2018-07-27T00:12:35.582Z,18.69
2018-07-27T00:15:04.984Z,18.58
2018-07-27T00:17:34.321Z,18.63
2018-07-27T00:20:03.444Z,18.52
2018-07-27T00:22:32.554Z,18.34
2018-07-27T00:25:01.658Z,18.28
2018-07-27T00:27:31.571Z,18.38
2018-07-27T00:30:00.937Z,18.20
2018-07-27T00:32:30.566Z,18.23
2018-07-27T00:34:59.686Z,18.11
2018-07-27T00:37:28.810Z,18.23
2018-07-27T00:39:57.919Z,18.24
2018-07-27T00:42:26.997Z,18.03
2018-07-27T00:44:56.158Z,18.20
2018-07-27T00:47:25.578Z,18.22
2018-07-27T00:49:54.756Z,18.26
2018-07-27T00:52:25.069Z,18.17
2018-07-27T00:54:54.582Z,18.20
2018-07-27T00:57:24.064Z,18.16
2018-07-27T00:59:53.650Z,18.06
2018-07-27T01:02:22.840Z,18.02
2018-07-27T01:04:51.978Z,17.87
2018-07-27T01:07:21.186Z,17.88
2018-07-27T01:09:50.461Z,17.75
2018-07-27T01:12:19.610Z,17.64
2018-07-27T01:14:48.904Z,17.56
2018-07-27T01:17:19.086Z,17.52
2018-07-27T01:19:48.470Z,17.55
2018-07-27T01:22:17.774Z,17.53
2018-07-27T01:24:47.374Z,17.48
2018-07-27T01:27:17.001Z,17.42
2018-07-27T01:29:46.273Z,17.34
2018-07-27T01:32:15.430Z,17.30
2018-07-27T01:34:45.113Z,17.22
2018-07-27T01:37:14.824Z,17.37
2018-07-27T01:39:44.039Z,17.65
2018-07-27T01:42:13.388Z,17.67
2018-07-27T01:44:42.654Z,17.56
2018-07-27T01:47:11.796Z,17.51
2018-07-27T01:49:41.117Z,17.58
2018-07-27T01:52:10.256Z,17.54
2018-07-27T01:54:39.490Z,17.56
2018-07-27T01:57:08.802Z,17.48
2018-07-27T01:59:40.314Z,17.69
2018-07-27T02:02:09.454Z,17.75
2018-07-27T02:04:38.614Z,17.62
2018-07-27T02:07:07.814Z,17.69
2018-07-27T02:09:36.713Z,17.76
2018-07-27T02:12:06.346Z,17.90
2018-07-27T02:14:36.642Z,17.73
2018-07-27T02:17:06.480Z,17.65
2018-07-27T02:19:35.693Z,17.68
2018-07-27T02:22:05.929Z,17.73
2018-07-27T02:24:35.114Z,17.61
2018-07-27T02:27:04.271Z,17.48
2018-07-27T02:29:33.610Z,17.20
2018-07-27T02:32:02.767Z,17.22
2018-07-27T02:34:31.903Z,17.11
2018-07-27T02:37:01.026Z,17.07
2018-07-27T02:39:30.172Z,17.06
2018-07-27T02:41:59.303Z,17.00
2018-07-27T02:44:28.827Z,17.36
2018-07-27T02:46:57.972Z,17.38
2018-07-27T02:49:27.086Z,17.28
2018-07-27T02:51:56.372Z,17.42
2018-07-27T02:54:26.346Z,17.58
2018-07-27T02:56:55.682Z,17.42
2018-07-27T02:59:24.978Z,17.45
2018-07-27T03:01:54.278Z,17.33
2018-07-27T03:04:23.603Z,17.25
2018-07-27T03:06:53.334Z,17.11
2018-07-27T03:09:22.477Z,16.94
2018-07-27T03:11:51.646Z,16.95
2018-07-27T03:14:20.795Z,16.90
2018-07-27T03:16:50.569Z,16.87
2018-07-27T03:19:19.695Z,16.73
2018-07-27T03:21:49.550Z,16.56
2018-07-27T03:24:18.719Z,16.71
2018-07-27T03:26:47.871Z,17.16
2018-07-27T03:29:17.438Z,17.06
2018-07-27T03:31:46.605Z,16.95
2018-07-27T03:34:15.734Z,16.83
2018-07-27T03:36:44.838Z,16.77
2018-07-27T03:39:13.990Z,16.78
2018-07-27T03:41:43.105Z,16.92
2018-07-27T03:44:12.233Z,17.23
2018-07-27T03:46:41.378Z,17.23
2018-07-27T03:49:10.530Z,17.22
2018-07-27T03:51:39.661Z,17.06
2018-07-27T03:54:09.213Z,16.92
2018-07-27T03:56:38.342Z,16.95
2018-07-27T03:59:07.457Z,17.15
2018-07-27T04:01:36.631Z,17.05
2018-07-27T04:04:05.822Z,16.92
2018-07-27T04:06:34.987Z,16.96
2018-07-27T04:09:06.094Z,17.11
2018-07-27T04:11:35.210Z,17.21
2018-07-27T04:14:04.438Z,17.15
2018-07-27T04:16:34.682Z,17.48
2018-07-27T04:19:04.512Z,17.56
2018-07-27T04:21:33.875Z,17.58
2018-07-27T04:24:03.622Z,17.49
2018-07-27T04:26:33.706Z,17.62
2018-07-27T04:29:02.863Z,17.56
2018-07-27T04:31:32.057Z,17.65
2018-07-27T04:34:01.206Z,17.73
2018-07-27T04:36:30.401Z,17.85
2018-07-27T04:38:59.789Z,17.91
2018-07-27T04:41:29.698Z,18.24
2018-07-27T04:43:59.129Z,18.89
2018-07-27T04:46:28.548Z,19.56
2018-07-27T04:48:59.513Z,20.02
2018-07-27T04:51:28.522Z,20.59
2018-07-27T04:53:57.645Z,21.25
2018-07-27T04:56:26.793Z,22.01
2018-07-27T04:58:55.890Z,22.33
2018-07-27T05:01:26.593Z,22.91
2018-07-27T05:03:56.521Z,22.68
2018-07-27T05:06:29.706Z,22.60
2018-07-27T05:09:04.009Z,22.85
2018-07-27T05:11:33.529Z,22.61
2018-07-27T05:14:02.665Z,22.60
2018-07-27T05:16:32.047Z,22.66
2018-07-27T05:19:01.658Z,22.53
2018-07-27T05:21:31.051Z,22.17
2018-07-27T05:24:04.564Z,22.56
2018-07-27T05:26:37.858Z,22.66
2018-07-27T05:29:07.186Z,22.86
2018-07-27T05:31:37.022Z,23.68
2018-07-27T05:34:06.694Z,24.25
2018-07-27T05:36:36.066Z,23.76
2018-07-27T05:39:09.663Z,23.90
2018-07-27T05:41:40.074Z,23.71
2018-07-27T05:44:10.749Z,24.03
2018-07-27T05:46:40.178Z,25.10
2018-07-27T05:49:09.713Z,24.82
2018-07-27T05:51:39.560Z,25.76
2018-07-27T05:54:08.923Z,25.45
2018-07-27T05:56:38.604Z,25.92
2018-07-27T05:59:07.778Z,25.64
2018-07-27T06:01:37.689Z,25.49
2018-07-27T06:04:07.413Z,25.23
2018-07-27T06:06:37.431Z,25.50
2018-07-27T06:09:10.581Z,25.39
2018-07-27T06:11:40.189Z,25.13
2018-07-27T06:14:09.704Z,26.18
2018-07-27T06:16:39.553Z,27.07
2018-07-27T06:19:08.988Z,26.78
2018-07-27T06:21:38.146Z,27.02
2018-07-27T06:24:07.796Z,27.53
2018-07-27T06:26:36.829Z,27.97
2018-07-27T06:29:05.991Z,28.54
2018-07-27T06:31:35.218Z,27.86
2018-07-27T06:34:04.354Z,28.04
2018-07-27T06:36:33.454Z,28.23
2018-07-27T06:39:02.633Z,29.47
2018-07-27T06:41:32.214Z,29.92
2018-07-27T06:44:01.332Z,28.47
2018-07-27T06:46:30.469Z,29.22
2018-07-27T06:48:59.785Z,29.65
2018-07-27T06:51:29.338Z,29.76
2018-07-27T06:53:58.485Z,29.12
2018-07-27T06:56:27.626Z,29.75
2018-07-27T06:58:56.734Z,30.30
2018-07-27T07:01:27.438Z,30.87
2018-07-27T07:03:56.542Z,31.35
2018-07-27T07:06:25.666Z,32.41
2018-07-27T07:08:54.629Z,33.52
2018-07-27T07:11:23.775Z,32.57
2018-07-27T07:13:52.883Z,31.89
2018-07-27T07:16:22.799Z,32.20
2018-07-27T07:18:51.906Z,33.85
2018-07-27T07:21:21.017Z,35.12
2018-07-27T07:23:50.145Z,35.32
2018-07-27T07:26:19.434Z,33.73
2018-07-27T07:28:48.541Z,33.49
2018-07-27T07:31:17.836Z,34.18
2018-07-27T07:33:46.982Z,34.22
2018-07-27T07:36:16.107Z,34.68
2018-07-27T07:38:45.319Z,35.51
2018-07-27T07:41:14.536Z,35.43
2018-07-27T07:43:43.690Z,35.48
2018-07-27T07:46:12.818Z,35.14
2018-07-27T07:48:41.939Z,35.12
2018-07-27T07:51:11.169Z,37.04
2018-07-27T07:53:40.900Z,36.93
2018-07-27T07:56:09.886Z,36.61
2018-07-27T07:58:39.104Z,37.06
2018-07-27T08:01:08.179Z,37.75
2018-07-27T08:03:37.281Z,37.97
2018-07-27T08:06:06.922Z,38.79
2018-07-27T08:08:36.080Z,37.97
2018-07-27T08:11:05.272Z,39.05
2018-07-27T08:13:34.445Z,39.80
2018-07-27T08:16:03.588Z,39.90
2018-07-27T08:18:34.351Z,38.54
2018-07-27T08:21:03.574Z,38.75
2018-07-27T08:23:32.774Z,39.91
2018-07-27T08:27:06.970Z,40.13
2018-07-27T08:29:40.080Z,40.13
2018-07-27T08:32:09.312Z,39.67
2018-07-27T08:34:38.614Z,40.71
2018-07-27T08:37:08.854Z,40.73
2018-07-27T08:39:39.247Z,38.40
2018-07-27T08:42:08.850Z,39.85
2018-07-27T08:44:39.355Z,40.13
2018-07-27T08:47:08.862Z,41.55
2018-07-27T08:49:37.961Z,41.39
2018-07-27T08:52:07.810Z,41.45
2018-07-27T08:54:38.333Z,41.14
2018-07-27T08:57:07.545Z,39.46
2018-07-27T08:59:36.674Z,42.04
2018-07-27T09:02:05.926Z,42.37
2018-07-27T09:04:35.075Z,40.32
2018-07-27T09:07:04.185Z,41.78
2018-07-27T09:09:33.298Z,42.85
2018-07-27T09:12:02.246Z,43.80
2018-07-27T09:14:32.998Z,42.45
2018-07-27T09:17:02.186Z,43.02
2018-07-27T09:19:31.287Z,43.33
2018-07-27T09:22:00.409Z,43.23
2018-07-27T09:24:30.116Z,44.22
2018-07-27T09:26:59.375Z,44.10
2018-07-27T09:29:28.531Z,42.85
2018-07-27T09:31:57.673Z,42.73
2018-07-27T09:34:26.849Z,42.71
2018-07-27T09:36:56.550Z,41.26
2018-07-27T09:39:25.674Z,42.85
2018-07-27T09:41:54.803Z,42.32
2018-07-27T09:44:23.929Z,42.33
2018-07-27T09:46:53.541Z,40.23
2018-07-27T09:49:22.750Z,40.97
2018-07-27T09:51:51.898Z,42.32
2018-07-27T09:54:22.758Z,42.27
2018-07-27T09:56:52.174Z,40.68
2018-07-27T09:59:21.402Z,41.89
2018-07-27T10:01:50.716Z,42.25
2018-07-27T10:04:20.238Z,41.02
2018-07-27T10:06:49.537Z,43.60
2018-07-27T10:09:18.773Z,42.98
2018-07-27T10:11:47.917Z,45.45
2018-07-27T10:14:17.088Z,44.74
2018-07-27T10:16:46.229Z,42.37
2018-07-27T10:19:15.426Z,42.14
2018-07-27T10:21:44.573Z,42.16
2018-07-27T10:24:13.992Z,40.90
2018-07-27T10:26:43.565Z,43.45
2018-07-27T10:29:13.117Z,43.45
2018-07-27T10:31:42.333Z,44.98
2018-07-27T10:34:11.470Z,45.22
2018-07-27T10:36:40.601Z,44.28
2018-07-27T10:39:11.538Z,41.92
2018-07-27T10:41:40.786Z,43.03
2018-07-27T10:44:10.227Z,44.00
2018-07-27T10:46:39.377Z,44.30
2018-07-27T10:49:08.546Z,46.08
2018-07-27T10:51:39.281Z,47.90
2018-07-27T10:54:08.936Z,46.75
2018-07-27T10:56:38.109Z,47.45
2018-07-27T10:59:07.652Z,48.58
2018-07-27T11:01:37.174Z,48.73
2018-07-27T11:04:06.322Z,49.43
2018-07-27T11:06:35.490Z,46.67
2018-07-27T11:09:06.271Z,46.81
2018-07-27T11:11:35.441Z,45.82
2018-07-27T11:14:05.725Z,45.49
2018-07-27T11:16:35.251Z,45.33
2018-07-27T11:19:04.396Z,46.30
2018-07-27T11:21:33.515Z,43.24
2018-07-27T11:24:02.691Z,45.13
2018-07-27T11:26:32.235Z,45.40
2018-07-27T11:29:01.391Z,46.50
2018-07-27T11:31:30.634Z,45.78
2018-07-27T11:33:59.755Z,46.34
2018-07-27T11:36:28.890Z,44.83
2018-07-27T11:38:58.050Z,44.84
2018-07-27T11:41:27.156Z,45.20
2018-07-27T11:43:56.314Z,45.59
2018-07-27T11:46:25.458Z,40.86
2018-07-27T11:48:54.558Z,38.80
2018-07-27T11:51:23.686Z,37.70
2018-07-27T11:53:52.925Z,39.88
2018-07-27T11:56:22.076Z,42.10
2018-07-27T11:58:51.192Z,42.34
2018-07-27T12:01:20.550Z,44.06
2018-07-27T12:03:50.085Z,43.56
2018-07-27T12:06:19.350Z,44.08
2018-07-27T12:08:48.470Z,44.92
2018-07-27T12:11:17.578Z,43.98
2018-07-27T12:13:46.795Z,40.89
2018-07-27T12:16:15.825Z,38.58
2018-07-27T12:18:44.939Z,39.88
2018-07-27T12:21:14.266Z,39.44
2018-07-27T12:23:43.182Z,38.93
2018-07-27T12:26:12.342Z,39.39
2018-07-27T12:28:41.433Z,40.44
2018-07-27T12:31:11.133Z,40.40
2018-07-27T12:33:40.287Z,41.03
2018-07-27T12:36:09.413Z,41.61
2018-07-27T12:38:38.526Z,39.82
2018-07-27T12:41:07.684Z,42.54
2018-07-27T12:43:36.805Z,43.50
2018-07-27T12:46:06.006Z,43.08
2018-07-27T12:48:35.159Z,45.51
2018-07-27T12:51:04.283Z,46.01
2018-07-27T12:53:33.427Z,43.49
2018-07-27T12:56:02.670Z,40.40
2018-07-27T12:58:31.784Z,38.32
2018-07-27T13:01:00.927Z,37.84
2018-07-27T13:03:30.038Z,37.02
2018-07-27T13:05:59.339Z,37.24
2018-07-27T13:08:28.746Z,36.95
2018-07-27T13:10:57.894Z,35.66
2018-07-27T13:13:27.035Z,35.21
2018-07-27T13:15:56.212Z,34.87
2018-07-27T13:18:25.343Z,35.29
2018-07-27T13:20:55.702Z,36.22
2018-07-27T13:23:25.323Z,35.83
2018-07-27T13:28:42.068Z,34.94
2018-07-27T13:31:12.203Z,35.03
2018-07-27T13:34:58.648Z,35.33
2018-07-27T13:37:28.987Z,35.79
2018-07-27T13:39:59.338Z,36.53
2018-07-27T13:42:29.649Z,38.84
2018-07-27T13:44:58.829Z,41.53
2018-07-27T13:47:27.986Z,42.94
2018-07-27T13:49:57.099Z,43.06
2018-07-27T13:52:26.711Z,41.80
2018-07-27T13:54:55.894Z,40.06
2018-07-27T13:57:25.083Z,41.02
2018-07-27T13:59:54.202Z,42.95
2018-07-27T14:02:23.326Z,41.66
2018-07-27T14:04:52.438Z,42.63
2018-07-27T14:07:21.610Z,42.62
2018-07-27T14:09:50.774Z,42.47
2018-07-27T14:12:19.866Z,43.34
2018-07-27T14:14:49.026Z,42.93
2018-07-27T14:17:18.149Z,40.87
2018-07-27T14:19:47.258Z,42.33
2018-07-27T14:22:17.154Z,42.14
2018-07-27T14:24:46.277Z,41.04
2018-07-27T14:27:15.443Z,42.91
2018-07-27T14:29:44.914Z,42.18
2018-07-27T14:32:14.047Z,40.51
2018-07-27T14:34:43.596Z,40.74
2018-07-27T14:37:12.869Z,42.47
2018-07-27T14:39:42.466Z,41.90
2018-07-27T14:42:11.630Z,40.68
2018-07-27T14:44:40.951Z,40.74
2018-07-27T14:47:10.303Z,42.71
2018-07-27T14:49:39.657Z,42.61
2018-07-27T14:52:09.100Z,41.93
2018-07-27T14:54:38.208Z,43.03
2018-07-27T14:57:07.330Z,42.45
2018-07-27T14:59:36.714Z,41.98
2018-07-27T15:02:06.007Z,41.84
2018-07-27T15:04:35.105Z,41.48
2018-07-27T15:07:04.235Z,41.02
2018-07-27T15:09:33.358Z,41.15
2018-07-27T15:12:02.479Z,41.65
2018-07-27T15:14:31.602Z,42.42
2018-07-27T15:17:00.765Z,42.01
2018-07-27T15:19:29.890Z,39.07
2018-07-27T15:21:59.019Z,36.74
2018-07-27T15:24:28.228Z,36.56
2018-07-27T15:26:57.326Z,37.05
2018-07-27T15:29:26.492Z,38.81
2018-07-27T15:31:55.651Z,39.44
2018-07-27T15:34:26.345Z,38.91
2018-07-27T15:36:56.217Z,40.13
2018-07-27T15:39:26.422Z,38.64
2018-07-27T15:41:55.606Z,38.34
2018-07-27T15:44:24.806Z,39.65
2018-07-27T15:46:56.282Z,38.31
2018-07-27T15:49:25.472Z,38.71
2018-07-27T15:51:54.717Z,39.21
2018-07-27T15:54:24.051Z,39.74
2018-07-27T15:56:53.314Z,40.70
2018-07-27T15:59:22.558Z,37.85
2018-07-27T16:01:51.711Z,37.61
2018-07-27T16:04:20.902Z,37.60
2018-07-27T16:06:50.010Z,38.10
2018-07-27T16:09:19.352Z,37.84
2018-07-27T16:11:48.738Z,38.41
2018-07-27T16:14:18.377Z,38.55
2018-07-27T16:16:47.493Z,38.72
2018-07-27T16:19:16.656Z,39.08
2018-07-27T16:21:45.776Z,37.90
2018-07-27T16:24:15.157Z,38.36
2018-07-27T16:26:44.325Z,38.72
2018-07-27T16:29:14.307Z,37.86
2018-07-27T16:31:44.059Z,37.97
2018-07-27T16:34:15.102Z,38.11
2018-07-27T16:36:45.235Z,37.69
2018-07-27T16:39:14.658Z,37.48
2018-07-27T16:41:44.676Z,36.67
2018-07-27T16:44:14.797Z,36.49
2018-07-27T16:46:44.514Z,36.38
2018-07-27T16:49:13.861Z,36.00
2018-07-27T16:51:43.502Z,35.61
2018-07-27T16:54:13.014Z,35.78
2018-07-27T16:56:42.309Z,35.94
2018-07-27T16:59:11.593Z,35.82
2018-07-27T17:01:40.769Z,35.66
2018-07-27T17:04:09.888Z,35.77
2018-07-27T17:06:39.221Z,35.61
2018-07-27T17:09:09.130Z,35.52
2018-07-27T17:11:38.242Z,35.25
2018-07-27T17:14:07.424Z,34.87
2018-07-27T17:16:36.534Z,34.84
2018-07-27T17:19:05.742Z,34.65
2018-07-27T17:21:35.078Z,34.27
2018-07-27T17:24:03.504Z,34.42
2018-07-27T17:26:32.881Z,34.20
2018-07-27T17:29:02.363Z,33.82
2018-07-27T17:31:30.997Z,33.59
2018-07-27T17:34:00.222Z,33.98
2018-07-27T17:36:29.498Z,33.79
2018-07-27T17:38:58.763Z,33.68
2018-07-27T17:41:28.138Z,33.57
2018-07-27T17:43:58.571Z,33.44
2018-07-27T17:46:26.883Z,33.41
2018-07-27T17:48:56.162Z,33.23
2018-07-27T17:51:25.658Z,33.05
2018-07-27T17:53:55.109Z,32.97
2018-07-27T17:56:23.913Z,32.77
2018-07-27T17:58:53.330Z,32.60
2018-07-27T18:01:25.303Z,32.37
2018-07-27T18:03:55.152Z,32.30
2018-07-27T18:06:24.822Z,32.16
2018-07-27T18:08:54.762Z,32.23
2018-07-27T18:11:24.266Z,32.00
2018-07-27T18:13:53.890Z,31.96
2018-07-27T18:16:23.362Z,31.68
2018-07-27T18:18:53.419Z,31.46
2018-07-27T18:21:24.441Z,31.13
2018-07-27T18:23:54.116Z,30.87
2018-07-27T18:26:23.875Z,30.56
2018-07-27T18:28:52.990Z,30.33
2018-07-27T18:31:23.494Z,30.25
2018-07-27T18:33:52.915Z,30.25
2018-07-27T18:36:24.374Z,30.01
2018-07-27T18:38:53.275Z,29.71
2018-07-27T18:41:22.719Z,29.32
2018-07-27T18:43:52.434Z,29.08
2018-07-27T18:46:22.745Z,28.91
2018-07-27T18:48:51.949Z,28.63
2018-07-27T18:51:21.773Z,28.39
2018-07-27T18:53:51.206Z,28.15
2018-07-27T18:56:20.664Z,27.96
2018-07-27T18:58:50.516Z,27.83
2018-07-27T19:01:21.189Z,27.66
2018-07-27T19:03:50.326Z,27.56
2018-07-27T19:06:19.542Z,27.44
2018-07-27T19:08:50.162Z,27.22
2018-07-27T19:11:19.911Z,27.28
2018-07-27T19:13:51.454Z,27.14
2018-07-27T19:16:20.198Z,26.95
2018-07-27T19:18:49.326Z,26.85
2018-07-27T19:21:18.430Z,26.80
2018-07-27T19:23:47.218Z,26.63
2018-07-27T19:26:16.326Z,26.53
2018-07-27T19:28:45.690Z,26.42
2018-07-27T19:31:15.024Z,26.38
2018-07-27T19:33:44.297Z,26.37
2018-07-27T19:36:14.168Z,26.28
2018-07-27T19:38:43.311Z,26.25
2018-07-27T19:41:12.090Z,26.20
2018-07-27T19:43:41.310Z,26.06
2018-07-27T19:46:10.364Z,26.02
2018-07-27T19:48:39.781Z,25.92
2018-07-27T19:51:08.929Z,25.92
2018-07-27T19:53:38.100Z,25.95
2018-07-27T19:56:07.353Z,25.84
2018-07-27T19:58:36.489Z,25.70
2018-07-27T20:01:05.635Z,25.77
2018-07-27T20:03:34.942Z,25.71
2018-07-27T20:06:04.134Z,25.52
2018-07-27T20:08:33.260Z,25.45
2018-07-27T20:11:02.384Z,25.34
2018-07-27T20:13:31.505Z,25.36
2018-07-27T20:16:00.634Z,25.30
2018-07-27T20:18:29.760Z,25.17
2018-07-27T20:20:58.938Z,25.09
2018-07-27T20:23:28.052Z,25.17
2018-07-27T20:25:57.166Z,25.16
2018-07-27T20:28:26.312Z,25.12
2018-07-27T20:30:55.430Z,25.24
2018-07-27T20:33:24.614Z,25.16
2018-07-27T20:35:53.910Z,24.95
2018-07-27T20:38:23.034Z,24.87
2018-07-27T20:40:52.180Z,24.81
2018-07-27T20:43:21.309Z,24.73
2018-07-27T20:45:50.589Z,24.68
2018-07-27T20:48:19.988Z,24.75
2018-07-27T20:50:49.251Z,24.68
2018-07-27T20:53:18.735Z,24.63
2018-07-27T20:55:48.102Z,24.58
2018-07-27T20:58:23.318Z,24.74
2018-07-27T21:00:52.610Z,24.72
2018-07-27T21:03:22.570Z,24.57
2018-07-27T21:05:51.390Z,24.53
2018-07-27T21:08:20.755Z,24.43
2018-07-27T21:10:50.062Z,24.33
2018-07-27T21:13:23.006Z,24.33
2018-07-27T21:15:52.396Z,24.30
2018-07-27T21:18:21.502Z,24.21
2018-07-27T21:20:51.039Z,24.09
2018-07-27T21:23:20.945Z,23.96
2018-07-27T21:25:50.258Z,23.96
2018-07-27T21:28:19.493Z,23.92
2018-07-27T21:30:49.135Z,23.86
2018-07-27T21:33:18.470Z,23.67
2018-07-27T21:35:48.042Z,23.57
2018-07-27T21:38:17.094Z,23.51
2018-07-27T21:40:46.237Z,23.40
2018-07-27T21:43:16.248Z,23.43
2018-07-27T21:45:45.447Z,23.41
2018-07-27T21:48:14.688Z,23.32
2018-07-27T21:50:43.730Z,23.17
2018-07-27T21:53:12.866Z,23.10
2018-07-27T21:55:42.054Z,23.07
2018-07-27T21:58:11.830Z,22.96
2018-07-27T22:00:41.515Z,23.05
2018-07-27T22:03:10.910Z,22.94
2018-07-27T22:05:40.025Z,22.84
2018-07-27T22:08:09.151Z,22.71
2018-07-27T22:10:38.362Z,22.63
2018-07-27T22:13:07.884Z,22.44
2018-07-27T22:15:37.250Z,22.50
2018-07-27T22:18:06.761Z,22.34
2018-07-27T22:20:37.721Z,22.29
2018-07-27T22:23:07.055Z,22.19
2018-07-27T22:25:36.390Z,22.80
2018-07-27T22:28:05.898Z,22.94
2018-07-27T22:30:35.674Z,22.84
2018-07-27T22:33:05.062Z,22.94
2018-07-27T22:35:34.670Z,22.93
2018-07-27T22:38:04.086Z,23.02
2018-07-27T22:40:34.461Z,23.02
2018-07-27T22:43:03.610Z,22.94
2018-07-27T22:45:32.509Z,22.83
2018-07-27T22:48:01.678Z,22.78
2018-07-27T22:50:30.870Z,22.84
2018-07-27T22:52:59.993Z,22.74
2018-07-27T22:55:29.030Z,22.79
2018-07-27T22:58:00.583Z,22.75
2018-07-27T23:00:29.707Z,22.84
2018-07-27T23:02:59.070Z,22.92
2018-07-27T23:05:28.119Z,22.94
2018-07-27T23:07:57.251Z,22.97
2018-07-27T23:10:26.889Z,23.02
2018-07-27T23:12:55.992Z,22.96
2018-07-27T23:15:25.818Z,22.79
2018-07-27T23:17:54.937Z,23.02
2018-07-27T23:20:24.075Z,22.96
2018-07-27T23:22:53.182Z,22.76
2018-07-27T23:27:57.948Z,22.70
2018-07-27T23:30:27.046Z,22.59
2018-07-27T23:32:56.186Z,22.31
2018-07-27T23:35:25.723Z,22.17
2018-07-27T23:37:55.096Z,22.04
2018-07-27T23:40:24.182Z,21.94
2018-07-27T23:42:54.114Z,22.00
2018-07-27T23:45:23.235Z,21.89
2018-07-27T23:47:52.345Z,21.80
2018-07-27T23:50:21.840Z,21.81
2018-07-27T23:52:54.017Z,21.83
2018-07-27T23:55:23.758Z,21.73
2018-07-27T23:57:53.638Z,21.69
